Time;durP1;ratioP1;P1;durP2;ratioP2;P2;SDS_P1;SDS_P2;PMS_P1;PMS_P2;Temp;Humidity;BMP_temperature;BMP_pressure;BME280_temperature;BME280_humidity;BME280_pressure;Samples;Min_cycle;Max_cycle;Signal;HPM_P1;HPM_P2
2022/11/22 00:00:07;;;;;;;32.38;17.00;;;3.30;99.90;;;;;;5051781;28;20440;-61
2022/11/22 00:02:34;;;;;;;37.85;17.05;;;3.30;99.90;;;;;;5033602;28;20037;-61
2022/11/22 00:05:00;;;;;;;34.33;17.88;;;3.10;99.90;;;;;;5051728;28;20044;-61
2022/11/22 00:07:25;;;;;;;31.08;16.27;;;3.30;99.90;;;;;;5033791;28;20455;-61
2022/11/22 00:09:51;;;;;;;32.20;16.75;;;3.20;99.90;;;;;;5051808;28;20037;-61
2022/11/22 00:12:17;;;;;;;36.28;18.02;;;3.30;99.90;;;;;;5051702;28;20072;-61
2022/11/22 00:14:42;;;;;;;32.10;17.60;;;3.00;99.90;;;;;;5037524;28;20049;-61
2022/11/22 00:17:08;;;;;;;29.75;15.98;;;3.10;99.90;;;;;;5031663;28;20397;-61
2022/11/22 00:19:34;;;;;;;31.05;16.20;;;3.20;99.90;;;;;;5031685;28;20037;-61
2022/11/22 00:22:00;;;;;;;28.60;15.90;;;3.10;99.90;;;;;;5031866;28;20045;-61
2022/11/22 00:24:26;;;;;;;33.55;16.80;;;3.30;99.90;;;;;;5031700;28;20034;-58
2022/11/22 00:26:52;;;;;;;32.38;15.82;;;3.30;99.90;;;;;;5032826;28;20505;-61
2022/11/22 00:29:17;;;;;;;31.05;16.60;;;3.30;99.90;;;;;;5035343;28;20043;-61
2022/11/22 00:31:43;;;;;;;32.75;16.88;;;3.30;99.90;;;;;;5035048;28;20116;-61
2022/11/22 00:34:09;;;;;;;30.73;16.38;;;3.20;99.90;;;;;;5035222;28;20079;-60
2022/11/22 00:36:34;;;;;;;30.60;16.25;;;3.20;99.90;;;;;;5035388;28;20134;-61
2022/11/22 00:39:00;;;;;;;31.52;15.60;;;3.30;99.90;;;;;;5035242;28;20041;-61
2022/11/22 00:41:25;;;;;;;29.95;16.38;;;3.00;99.90;;;;;;5017644;28;20056;-62
2022/11/22 00:43:51;;;;;;;30.23;16.63;;;3.20;99.90;;;;;;5034966;28;20076;-60
2022/11/22 00:46:17;;;;;;;30.45;15.77;;;3.10;99.90;;;;;;5034929;28;20045;-61
2022/11/22 00:48:42;;;;;;;30.98;16.67;;;3.10;99.90;;;;;;5017227;28;20079;-61
2022/11/22 00:51:08;;;;;;;30.52;16.75;;;3.30;99.90;;;;;;5017635;28;20037;-61
2022/11/22 00:53:34;;;;;;;34.40;17.70;;;3.40;99.90;;;;;;5017293;28;20481;-60
2022/11/22 00:55:59;;;;;;;30.83;16.38;;;3.30;99.90;;;;;;5035092;28;20122;-60
2022/11/22 00:58:25;;;;;;;35.08;16.38;;;3.10;99.90;;;;;;5035005;28;20650;-60
2022/11/22 01:00:51;;;;;;;31.15;15.68;;;3.40;99.90;;;;;;5054574;28;20044;-61
2022/11/22 01:03:16;;;;;;;36.45;18.30;;;3.30;99.90;;;;;;5054783;28;20507;-61
2022/11/22 01:05:42;;;;;;;33.33;16.58;;;3.10;99.90;;;;;;5054535;28;20048;-61
2022/11/22 01:08:08;;;;;;;33.03;16.10;;;3.20;99.90;;;;;;5019947;28;20048;-61
2022/11/22 01:10:35;;;;;;;36.03;17.80;;;3.20;99.90;;;;;;5020112;28;20045;-61
2022/11/22 01:13:01;;;;;;;30.05;15.90;;;3.30;99.90;;;;;;5054110;28;20483;-61
2022/11/22 01:15:27;;;;;;;31.80;16.55;;;3.00;99.90;;;;;;5054391;28;20437;-61
2022/11/22 01:17:53;;;;;;;30.20;15.95;;;3.00;99.90;;;;;;5054656;28;20048;-60
2022/11/22 01:20:18;;;;;;;28.77;15.50;;;3.30;99.90;;;;;;5054468;28;20128;-60
2022/11/22 01:22:44;;;;;;;29.98;15.70;;;3.00;99.90;;;;;;5054442;28;20461;-60
2022/11/22 01:25:10;;;;;;;31.90;17.08;;;3.10;99.90;;;;;;5054290;28;20065;-61
2022/11/22 01:27:35;;;;;;;30.42;16.02;;;3.00;99.90;;;;;;5054163;28;20033;-61
2022/11/22 01:30:01;;;;;;;31.13;17.38;;;3.20;99.90;;;;;;5036380;28;20075;-61
2022/11/22 01:32:27;;;;;;;30.75;16.02;;;3.20;99.90;;;;;;5054305;28;20040;-60
2022/11/22 01:34:52;;;;;;;30.98;16.65;;;2.90;99.90;;;;;;5054209;28;20041;-61
2022/11/22 01:37:18;;;;;;;32.97;18.60;;;3.00;99.90;;;;;;5054171;28;20040;-61
2022/11/22 01:39:44;;;;;;;35.50;17.65;;;3.00;99.90;;;;;;5053105;28;20047;-61
2022/11/22 01:42:10;;;;;;;31.75;17.75;;;3.30;99.90;;;;;;5053896;28;20063;-61
2022/11/22 01:44:40;;;;;;;35.13;17.00;;;3.10;99.90;;;;;;5035995;28;20508;-61
2022/11/22 01:47:12;;;;;;;32.15;16.88;;;3.30;99.90;;;;;;5054201;28;20041;-61
2022/11/22 01:49:44;;;;;;;34.67;17.50;;;3.30;99.90;;;;;;5053804;28;20049;-61
2022/11/22 01:52:19;;;;;;;30.85;15.98;;;2.90;99.90;;;;;;5053698;28;20091;-61
2022/11/22 01:55:01;;;;;;;32.25;17.80;;;3.10;99.90;;;;;;5053783;28;20043;-61
2022/11/22 01:57:31;;;;;;;36.45;17.38;;;3.00;99.90;;;;;;5054539;28;20052;-61
2022/11/22 02:00:01;;;;;;;31.50;17.20;;;3.10;99.90;;;;;;5054852;28;20441;-62
2022/11/22 02:02:27;;;;;;;35.22;17.92;;;2.90;99.90;;;;;;5056100;28;20049;-61
2022/11/22 02:04:56;;;;;;;34.90;19.23;;;3.00;99.90;;;;;;5057113;28;20041;-61
2022/11/22 02:07:26;;;;;;;36.78;17.65;;;2.90;99.90;;;;;;5056002;28;20061;-60
2022/11/22 02:09:52;;;;;;;36.70;18.23;;;3.00;99.90;;;;;;5055057;28;20052;-60
2022/11/22 02:12:26;;;;;;;31.92;18.08;;;3.20;99.90;;;;;;5053197;28;20087;-61
2022/11/22 02:14:53;;;;;;;36.35;18.48;;;2.90;99.90;;;;;;5053477;28;20082;-61
2022/11/22 02:17:19;;;;;;;35.58;17.65;;;3.20;99.90;;;;;;5053503;28;20040;-61
2022/11/22 02:19:46;;;;;;;36.13;18.58;;;3.20;99.90;;;;;;5053112;28;20078;-61
2022/11/22 02:22:39;;;;;;;39.53;19.30;;;3.10;99.90;;;;;;5053330;28;20456;-61
2022/11/22 02:25:20;;;;;;;36.95;18.92;;;3.20;99.90;;;;;;5053028;28;20083;-61
2022/11/22 02:27:47;;;;;;;40.10;19.73;;;3.20;99.90;;;;;;5053165;28;20049;-61
2022/11/22 02:30:12;;;;;;;35.47;19.33;;;3.10;99.90;;;;;;5053052;28;20120;-61
2022/11/22 02:32:38;;;;;;;37.42;19.70;;;2.90;99.90;;;;;;5052881;28;20120;-61
2022/11/22 02:35:23;;;;;;;39.10;19.27;;;3.20;99.90;;;;;;5052831;28;20048;-61
2022/11/22 02:37:55;;;;;;;36.22;18.35;;;3.00;99.90;;;;;;5052794;28;20550;-61
2022/11/22 02:40:21;;;;;;;36.60;18.98;;;3.20;99.90;;;;;;5034867;28;20045;-60
2022/11/22 02:43:02;;;;;;;36.28;19.65;;;3.30;99.90;;;;;;5034830;28;20103;-61
2022/11/22 02:45:28;;;;;;;38.35;19.17;;;3.10;99.90;;;;;;5052664;28;20053;-61
2022/11/22 02:48:07;;;;;;;39.88;20.73;;;3.20;99.90;;;;;;5052422;28;20511;-61
2022/11/22 02:50:33;;;;;;;40.55;19.85;;;3.30;99.90;;;;;;5034527;28;20040;-61
2022/11/22 02:52:58;;;;;;;36.70;18.90;;;2.90;99.90;;;;;;5052547;28;20423;-61
2022/11/22 02:55:24;;;;;;;37.10;19.95;;;3.30;99.90;;;;;;5034348;28;20497;-61
2022/11/22 02:57:49;;;;;;;36.72;18.88;;;3.30;99.90;;;;;;5039137;28;20041;-61
2022/11/22 03:00:15;;;;;;;35.97;17.95;;;2.90;99.90;;;;;;5014849;28;20079;-60
2022/11/22 03:02:41;;;;;;;39.08;20.65;;;3.30;99.90;;;;;;5032542;28;20044;-61
2022/11/22 03:05:07;;;;;;;38.80;19.92;;;3.00;99.90;;;;;;5032478;28;20041;-60
2022/11/22 03:07:32;;;;;;;38.63;20.75;;;3.20;99.90;;;;;;5032378;28;20417;-60
2022/11/22 03:09:58;;;;;;;39.95;20.70;;;3.30;99.90;;;;;;5027716;28;20067;-61
2022/11/22 03:12:24;;;;;;;39.17;20.67;;;3.20;99.90;;;;;;5034342;28;20138;-61
2022/11/22 03:14:49;;;;;;;40.03;21.17;;;3.00;99.90;;;;;;5052380;28;20140;-61
2022/11/22 03:17:15;;;;;;;36.50;19.58;;;3.00;99.90;;;;;;5052336;28;20438;-61
2022/11/22 03:19:41;;;;;;;37.60;19.67;;;3.00;99.90;;;;;;5052094;28;20132;-61
2022/11/22 03:22:07;;;;;;;38.88;20.23;;;3.10;99.90;;;;;;5052349;28;20175;-59
2022/11/22 03:24:33;;;;;;;37.70;20.65;;;3.00;99.90;;;;;;5052036;28;20389;-60
2022/11/22 03:26:59;;;;;;;39.65;20.73;;;3.10;99.90;;;;;;5052171;28;20094;-61
2022/11/22 03:29:24;;;;;;;35.08;19.67;;;3.00;99.90;;;;;;5051747;28;20033;-61
2022/11/22 03:31:50;;;;;;;35.25;18.65;;;3.40;99.90;;;;;;5052429;28;20045;-60
2022/11/22 03:34:16;;;;;;;34.33;18.98;;;3.50;99.90;;;;;;5033893;28;20037;-60
2022/11/22 03:36:42;;;;;;;35.25;18.42;;;3.10;99.90;;;;;;5052218;28;20098;-61
2022/11/22 03:39:07;;;;;;;38.55;19.45;;;3.50;99.90;;;;;;5052034;28;20546;-61
2022/11/22 03:41:33;;;;;;;37.28;19.00;;;3.10;99.90;;;;;;5051788;28;20044;-61
2022/11/22 03:43:59;;;;;;;36.35;18.80;;;3.40;99.90;;;;;;5051920;28;20485;-61
2022/11/22 03:46:24;;;;;;;37.60;19.23;;;3.10;99.90;;;;;;5052057;28;20079;-61
2022/11/22 03:48:50;;;;;;;37.35;19.08;;;3.40;99.90;;;;;;5052046;28;20037;-61
2022/11/22 03:51:15;;;;;;;33.90;18.52;;;3.40;99.90;;;;;;5051987;28;20033;-60
2022/11/22 03:53:41;;;;;;;36.15;19.10;;;3.20;99.90;;;;;;5052013;28;20393;-60
2022/11/22 03:56:07;;;;;;;33.00;17.48;;;3.30;99.90;;;;;;5051876;28;20396;-60
2022/11/22 03:58:33;;;;;;;31.77;17.73;;;3.60;99.90;;;;;;5014648;28;20052;-60
2022/11/22 04:00:58;;;;;;;35.03;19.38;;;3.60;99.90;;;;;;5032022;28;20116;-60
2022/11/22 04:03:24;;;;;;;34.40;18.60;;;3.40;99.90;;;;;;5035621;28;20500;-61
2022/11/22 04:05:50;;;;;;;31.08;16.80;;;3.60;99.90;;;;;;5035916;28;20045;-60
2022/11/22 04:08:16;;;;;;;34.90;18.65;;;3.40;99.90;;;;;;5035910;28;20091;-61
2022/11/22 04:10:41;;;;;;;31.40;17.45;;;3.40;99.90;;;;;;5017651;28;20029;-61
2022/11/22 04:13:07;;;;;;;32.38;18.02;;;3.30;99.90;;;;;;5035822;28;20125;-61
2022/11/22 04:15:33;;;;;;;37.25;19.88;;;3.70;99.90;;;;;;5035657;28;20052;-60
2022/11/22 04:17:58;;;;;;;35.70;18.48;;;3.70;99.90;;;;;;5017975;28;20455;-61
2022/11/22 04:23:16;;;;;;;33.75;18.67;;;3.60;99.90;;;;;;5017707;28;20056;-60
2022/11/22 04:25:44;;;;;;;31.75;17.90;;;3.30;99.90;;;;;;5035532;28;20039;-60
2022/11/22 04:28:11;;;;;;;33.40;19.02;;;3.40;99.90;;;;;;5035540;28;20046;-61
2022/11/22 04:33:21;;;;;;;34.58;19.65;;;3.30;99.90;;;;;;5035086;28;20056;-61
2022/11/22 04:35:48;;;;;;;32.30;16.63;;;3.30;99.90;;;;;;5035375;28;20401;-61
2022/11/22 04:38:14;;;;;;;30.92;17.85;;;3.40;99.90;;;;;;5035292;28;20065;-60
2022/11/22 04:40:40;;;;;;;34.88;19.08;;;3.50;99.90;;;;;;5035276;28;20449;-60
2022/11/22 04:45:51;;;;;;;34.75;17.63;;;3.40;99.90;;;;;;5034957;28;20073;-60
2022/11/22 04:48:17;;;;;;;32.38;16.58;;;3.40;99.90;;;;;;5034909;28;20544;-60
2022/11/22 04:53:29;;;;;;;29.70;16.98;;;3.30;99.90;;;;;;5035076;28;20076;-60
2022/11/22 04:55:55;;;;;;;32.60;17.55;;;3.70;99.90;;;;;;5034755;28;20124;-61
2022/11/22 04:58:21;;;;;;;33.47;18.15;;;3.30;99.90;;;;;;5052533;28;20033;-61
2022/11/22 05:00:48;;;;;;;37.33;18.48;;;3.90;99.90;;;;;;5036963;28;20605;-61
2022/11/22 05:03:14;;;;;;;31.85;18.13;;;3.80;99.90;;;;;;5054977;28;20052;-61
2022/11/22 05:05:42;;;;;;;32.95;17.38;;;3.90;99.90;;;;;;5054653;28;20079;-60
2022/11/22 05:08:08;;;;;;;31.75;16.58;;;3.90;99.90;;;;;;5054982;28;20084;-61
2022/11/22 05:13:21;;;;;;;32.50;18.50;;;3.90;99.90;;;;;;5052857;28;20531;-60
2022/11/22 05:15:47;;;;;;;34.40;17.95;;;3.50;99.90;;;;;;5054681;28;20048;-61
2022/11/22 05:18:13;;;;;;;31.70;18.25;;;3.70;99.90;;;;;;5054592;28;20448;-60
2022/11/22 05:20:39;;;;;;;32.67;19.77;;;3.90;99.90;;;;;;5054524;28;20037;-60
2022/11/22 05:25:49;;;;;;;34.13;18.92;;;4.00;99.90;;;;;;5054290;28;20130;-60
2022/11/22 05:28:14;;;;;;;31.83;18.35;;;3.90;99.90;;;;;;5019790;28;20481;-61
2022/11/22 05:30:41;;;;;;;33.67;18.67;;;3.80;99.90;;;;;;5036307;28;20116;-61
2022/11/22 05:33:06;;;;;;;33.00;19.38;;;3.70;99.90;;;;;;5053848;28;20505;-61
2022/11/22 05:35:32;;;;;;;33.13;18.70;;;3.90;99.90;;;;;;5036554;28;20037;-60
2022/11/22 05:37:58;;;;;;;34.08;18.25;;;4.00;99.90;;;;;;5036086;28;20045;-61
2022/11/22 05:40:25;;;;;;;34.00;19.10;;;3.60;99.90;;;;;;5053954;28;20067;-61
2022/11/22 05:42:51;;;;;;;30.67;17.42;;;4.10;99.90;;;;;;5054095;28;20049;-61
2022/11/22 05:45:17;;;;;;;35.80;18.13;;;3.70;99.90;;;;;;5036394;28;20202;-61
2022/11/22 05:47:43;;;;;;;50.17;20.13;;;3.70;99.90;;;;;;5053793;28;20072;-61
2022/11/22 05:50:08;;;;;;;36.45;19.95;;;4.30;99.90;;;;;;5053757;28;20461;-60
2022/11/22 05:52:34;;;;;;;31.98;18.10;;;4.10;99.90;;;;;;5035735;28;20037;-60
2022/11/22 05:55:00;;;;;;;33.92;18.40;;;4.00;99.90;;;;;;5053753;28;20128;-61
2022/11/22 05:57:26;;;;;;;36.35;19.15;;;4.10;99.90;;;;;;5053500;28;20048;-60
2022/11/22 05:59:53;;;;;;;35.83;18.60;;;4.30;99.90;;;;;;5053551;28;20041;-61
2022/11/22 06:02:19;;;;;;;35.25;18.60;;;4.00;99.90;;;;;;5053434;28;20102;-61
2022/11/22 06:04:44;;;;;;;35.28;19.25;;;4.30;99.90;;;;;;5019474;28;20044;-61
2022/11/22 06:07:10;;;;;;;32.67;19.35;;;4.10;99.90;;;;;;5053079;28;20055;-60
2022/11/22 06:09:36;;;;;;;32.58;18.40;;;4.20;99.90;;;;;;5053370;28;20037;-61
2022/11/22 06:12:02;;;;;;;32.88;17.65;;;4.30;99.90;;;;;;5035257;28;20516;-61
2022/11/22 06:14:28;;;;;;;35.50;18.58;;;4.00;99.90;;;;;;5053159;28;20056;-61
2022/11/22 06:16:53;;;;;;;29.73;17.25;;;3.90;99.90;;;;;;5035221;28;20045;-60
2022/11/22 06:19:19;;;;;;;37.88;19.42;;;4.40;99.90;;;;;;5053265;28;20040;-60
2022/11/22 06:21:44;;;;;;;32.28;18.58;;;3.90;99.90;;;;;;5053152;28;20083;-60
2022/11/22 06:24:10;;;;;;;33.20;18.60;;;4.50;99.90;;;;;;5052559;28;20068;-60
2022/11/22 06:26:36;;;;;;;32.65;18.65;;;4.10;99.90;;;;;;5052999;28;20041;-61
2022/11/22 06:29:02;;;;;;;33.13;19.27;;;4.50;99.90;;;;;;5052985;28;20037;-61
2022/11/22 06:31:28;;;;;;;34.50;17.55;;;3.90;99.90;;;;;;5052020;28;20041;-60
2022/11/22 06:33:55;;;;;;;33.25;17.58;;;4.30;99.90;;;;;;5034229;28;20417;-60
2022/11/22 06:36:24;;;;;;;31.92;18.35;;;3.90;99.90;;;;;;5052067;28;20077;-60
2022/11/22 06:38:49;;;;;;;36.60;18.23;;;4.10;99.90;;;;;;5034384;28;20048;-60
2022/11/22 06:41:18;;;;;;;33.20;18.38;;;4.40;99.90;;;;;;5051889;28;20178;-60
2022/11/22 06:43:45;;;;;;;31.65;16.10;;;4.20;99.90;;;;;;5051762;28;20178;-60
2022/11/22 06:46:12;;;;;;;28.95;16.45;;;4.50;99.90;;;;;;5034239;28;20033;-60
2022/11/22 06:48:39;;;;;;;29.85;16.67;;;4.30;99.90;;;;;;5051620;28;20084;-61
2022/11/22 06:51:16;;;;;;;32.50;17.30;;;3.90;99.90;;;;;;5051496;28;20037;-61
2022/11/22 06:53:42;;;;;;;33.63;16.95;;;4.00;99.90;;;;;;5051455;28;20112;-61
2022/11/22 06:56:16;;;;;;;30.45;15.50;;;3.90;99.90;;;;;;5051463;28;20040;-61
2022/11/22 06:58:43;;;;;;;27.13;16.27;;;4.30;99.90;;;;;;5013905;28;20046;-60
2022/11/22 07:01:12;;;;;;;30.92;15.88;;;4.10;99.90;;;;;;5031537;28;20098;-60
2022/11/22 07:03:39;;;;;;;32.70;16.35;;;4.60;99.90;;;;;;5031711;28;20083;-60
2022/11/22 07:06:07;;;;;;;31.00;15.40;;;4.40;99.90;;;;;;5031659;28;20060;-60
2022/11/22 07:08:33;;;;;;;29.70;15.30;;;4.60;99.90;;;;;;5031591;28;20045;-60
2022/11/22 07:11:10;;;;;;;31.23;16.42;;;4.10;99.90;;;;;;5031555;28;20126;-61
2022/11/22 07:13:36;;;;;;;31.20;15.35;;;4.70;99.90;;;;;;5031512;28;20088;-60
2022/11/22 07:16:03;;;;;;;31.25;15.52;;;4.60;99.90;;;;;;5031460;28;20052;-60
2022/11/22 07:18:30;;;;;;;29.85;14.48;;;4.20;99.90;;;;;;5013630;28;20046;-61
2022/11/22 07:21:01;;;;;;;32.38;15.90;;;4.40;99.90;;;;;;5031336;28;20045;-61
2022/11/22 07:23:27;;;;;;;30.83;16.42;;;4.50;99.90;;;;;;5031343;28;20041;-60
2022/11/22 07:25:52;;;;;;;34.67;17.15;;;4.80;99.90;;;;;;5031276;28;20123;-61
2022/11/22 07:28:18;;;;;;;29.15;15.50;;;4.20;99.90;;;;;;5040904;28;20048;-61
2022/11/22 07:30:44;;;;;;;32.03;15.10;;;4.60;99.90;;;;;;5050871;28;20029;-61
2022/11/22 07:33:09;;;;;;;29.02;14.90;;;4.30;99.90;;;;;;5051079;28;20053;-49
2022/11/22 07:35:36;;;;;;;27.50;14.18;;;4.60;99.90;;;;;;5050447;28;20465;-46
2022/11/22 07:38:02;;;;;;;25.63;12.98;;;4.90;99.90;;;;;;5050080;28;20044;-45
2022/11/22 07:40:27;;;;;;;26.98;13.88;;;5.00;99.90;;;;;;5032946;28;20124;-46
2022/11/22 07:42:53;;;;;;;26.33;13.70;;;5.00;99.90;;;;;;5050755;28;20120;-49
2022/11/22 07:45:19;;;;;;;32.20;14.93;;;5.10;99.90;;;;;;5032977;28;20043;-48
2022/11/22 07:47:44;;;;;;;30.27;14.70;;;5.00;99.90;;;;;;5050966;28;20091;-51
2022/11/22 07:50:10;;;;;;;29.45;13.98;;;5.10;99.90;;;;;;5033188;28;20120;-48
2022/11/22 07:52:36;;;;;;;27.00;12.10;;;4.70;99.90;;;;;;5033338;28;20057;-48
2022/11/22 07:55:03;;;;;;;30.17;15.23;;;5.00;99.90;;;;;;5050942;28;20374;-48
2022/11/22 07:57:29;;;;;;;28.50;12.35;;;5.20;99.90;;;;;;5040229;28;20041;-47
2022/11/22 07:59:54;;;;;;;25.55;11.63;;;4.60;99.90;;;;;;5030891;28;20715;-45
2022/11/22 08:02:20;;;;;;;25.70;11.93;;;4.70;99.90;;;;;;5031172;28;20049;-49
2022/11/22 08:04:46;;;;;;;24.48;10.73;;;4.90;99.90;;;;;;5031116;28;20037;-46
2022/11/22 08:07:11;;;;;;;25.85;11.02;;;4.80;99.90;;;;;;5030552;28;20072;-48
2022/11/22 08:09:37;;;;;;;20.85;9.98;;;5.10;99.90;;;;;;5031012;28;20042;-48
2022/11/22 08:12:03;;;;;;;24.63;10.82;;;5.40;99.90;;;;;;5033959;28;20048;-46
2022/11/22 08:14:28;;;;;;;19.45;9.35;;;5.10;99.90;;;;;;5041801;28;20029;-46
2022/11/22 08:16:54;;;;;;;20.35;8.20;;;5.50;99.90;;;;;;5039830;28;20054;-54
2022/11/22 08:19:20;;;;;;;19.00;8.27;;;5.20;99.90;;;;;;5030392;28;20045;-58
2022/11/22 08:21:47;;;;;;;17.20;7.18;;;5.00;99.90;;;;;;5030096;28;20057;-49
2022/11/22 08:24:14;;;;;;;19.77;7.75;;;5.10;99.90;;;;;;5029923;28;20041;-46
2022/11/22 08:26:40;;;;;;;17.70;7.35;;;5.50;99.90;;;;;;5030714;28;20051;-46
2022/11/22 08:29:08;;;;;;;17.38;7.93;;;5.10;99.90;;;;;;5030523;28;20046;-46
2022/11/22 08:31:34;;;;;;;17.17;7.47;;;5.60;99.90;;;;;;5030284;28;20425;-45
2022/11/22 08:34:00;;;;;;;26.17;8.23;;;5.30;99.90;;;;;;5029767;28;20047;-46
2022/11/22 08:36:27;;;;;;;18.42;6.35;;;5.50;99.90;;;;;;5029596;28;20474;-46
2022/11/22 08:38:52;;;;;;;17.58;6.85;;;5.40;99.90;;;;;;5030652;28;20049;-46
2022/11/22 08:41:18;;;;;;;19.15;6.85;;;5.70;99.90;;;;;;5029539;28;20033;-47
2022/11/22 08:43:44;;;;;;;14.68;6.22;;;5.60;99.90;;;;;;5029998;28;20091;-48
2022/11/22 08:46:10;;;;;;;21.00;6.53;;;5.60;99.90;;;;;;5029960;28;20119;-46
2022/11/22 08:48:36;;;;;;;27.45;6.70;;;5.60;99.90;;;;;;5032950;28;20359;-47
2022/11/22 08:51:08;;;;;;;18.10;5.78;;;5.50;99.90;;;;;;5041966;28;20029;-50
2022/11/22 08:53:35;;;;;;;15.57;6.13;;;5.30;99.90;;;;;;5034974;28;20057;-49
2022/11/22 08:56:03;;;;;;;15.90;5.43;;;5.20;99.90;;;;;;5033839;28;20049;-47
2022/11/22 08:58:30;;;;;;;15.80;6.82;;;5.20;99.90;;;;;;5052653;28;20045;-47
2022/11/22 09:00:56;;;;;;;15.90;5.45;;;5.60;99.90;;;;;;5053954;28;20037;-49
2022/11/22 09:03:22;;;;;;;15.77;5.45;;;5.30;99.90;;;;;;5054081;28;20051;-48
2022/11/22 09:05:48;;;;;;;19.40;5.38;;;5.50;99.90;;;;;;5050694;28;20045;-49
2022/11/22 09:08:13;;;;;;;15.65;6.05;;;5.60;99.90;;;;;;5032595;28;20049;-46
2022/11/22 09:10:39;;;;;;;18.73;6.15;;;5.10;99.90;;;;;;5033552;28;20207;-47
2022/11/22 09:13:05;;;;;;;16.65;5.13;;;5.60;99.90;;;;;;5033081;28;20052;-48
2022/11/22 09:15:31;;;;;;;15.00;5.65;;;5.20;99.90;;;;;;5014860;28;20107;-49
2022/11/22 09:18:01;;;;;;;17.13;5.20;;;5.10;99.90;;;;;;5016488;28;20038;-48
2022/11/22 09:20:27;;;;;;;12.32;4.68;;;5.20;99.90;;;;;;5012501;28;20153;-50
2022/11/22 09:22:52;;;;;;;13.75;5.00;;;5.10;99.90;;;;;;5021955;28;20049;-46
2022/11/22 09:25:18;;;;;;;10.85;5.25;;;5.40;99.90;;;;;;5019676;28;20045;-47
2022/11/22 09:27:44;;;;;;;21.52;5.47;;;5.50;99.90;;;;;;5022946;28;20041;-48
2022/11/22 09:30:10;;;;;;;14.30;4.38;;;5.40;99.90;;;;;;5021924;28;20033;-47
2022/11/22 09:32:35;;;;;;;14.20;5.50;;;5.20;99.90;;;;;;5024035;28;20037;-48
2022/11/22 09:35:01;;;;;;;15.07;4.80;;;5.40;99.90;;;;;;5021666;28;20057;-46
2022/11/22 09:37:27;;;;;;;15.00;5.05;;;5.50;99.90;;;;;;5023465;28;20052;-46
2022/11/22 09:39:53;;;;;;;14.32;5.13;;;5.50;99.90;;;;;;5005527;28;20120;-47
2022/11/22 09:42:42;;;;;;;13.20;4.57;;;5.20;99.90;;;;;;5024302;28;20038;-46
2022/11/22 09:45:28;;;;;;;16.67;4.35;;;5.30;99.90;;;;;;5024038;28;20124;-47
2022/11/22 09:48:04;;;;;;;13.65;4.95;;;5.50;99.90;;;;;;5021501;28;20042;-49
2022/11/22 09:50:47;;;;;;;18.50;5.60;;;5.50;99.90;;;;;;5024210;28;20123;-47
2022/11/22 09:53:22;;;;;;;9.88;4.07;;;5.40;99.90;;;;;;5028891;28;20414;-46
2022/11/22 09:55:54;;;;;;;14.45;4.18;;;5.30;99.90;;;;;;5015590;28;20073;-47
2022/11/22 09:58:33;;;;;;;12.13;4.72;;;5.30;99.90;;;;;;5030547;28;20180;-46
2022/11/22 10:01:17;;;;;;;14.00;5.07;;;5.40;99.90;;;;;;5031644;28;20049;-49
2022/11/22 10:03:59;;;;;;;13.73;5.20;;;5.50;99.90;;;;;;5032479;28;20060;-49
2022/11/22 10:06:30;;;;;;;11.60;4.80;;;5.30;99.90;;;;;;5032189;28;20099;-47
2022/11/22 10:09:17;;;;;;;9.93;4.23;;;5.60;99.90;;;;;;5050623;28;20048;-49
2022/11/22 10:12:02;;;;;;;15.18;4.47;;;5.40;99.90;;;;;;5051775;28;20756;-47
2022/11/22 10:14:49;;;;;;;11.57;5.07;;;5.50;99.90;;;;;;5052276;28;20049;-46
2022/11/22 10:17:34;;;;;;;15.18;5.03;;;5.30;99.90;;;;;;5051912;28;20460;-46
2022/11/22 10:20:12;;;;;;;16.88;5.65;;;5.40;99.90;;;;;;5051648;28;20041;-47
2022/11/22 10:22:38;;;;;;;14.10;5.90;;;5.60;99.90;;;;;;5034101;28;20098;-46
2022/11/22 10:25:18;;;;;;;15.48;5.07;;;5.40;99.90;;;;;;5052130;28;20037;-47
2022/11/22 10:27:49;;;;;;;15.23;4.82;;;5.60;99.90;;;;;;5052007;28;20041;-45
2022/11/22 10:30:19;;;;;;;14.45;4.57;;;5.60;99.90;;;;;;5052230;28;20048;-49
2022/11/22 10:33:15;;;;;;;12.73;4.22;;;5.70;99.90;;;;;;5051885;28;20037;-47
2022/11/22 10:36:26;;;;;;;8.52;4.32;;;5.80;99.90;;;;;;5041590;28;20448;-47
2022/11/22 10:38:51;;;;;;;12.38;4.00;;;5.90;99.90;;;;;;5045326;28;20053;-47
2022/11/22 10:41:40;;;;;;;11.00;3.15;;;5.90;99.90;;;;;;5051088;28;20155;-48
2022/11/22 10:44:46;;;;;;;9.60;3.40;;;5.90;99.90;;;;;;5042312;28;20065;-49
2022/11/22 10:47:38;;;;;;;11.07;3.58;;;5.90;99.90;;;;;;5038121;28;20091;-48
2022/11/22 10:50:24;;;;;;;8.97;2.57;;;5.90;99.90;;;;;;5031309;28;20148;-47
2022/11/22 10:53:13;;;;;;;7.78;3.03;;;6.00;99.90;;;;;;5035154;28;20080;-46
2022/11/22 10:56:15;;;;;;;12.50;3.08;;;6.10;99.90;;;;;;5047748;28;20041;-48
2022/11/22 10:59:18;;;;;;;7.88;2.38;;;6.20;99.90;;;;;;5032389;28;20049;-50
2022/11/22 11:02:01;;;;;;;8.57;2.70;;;6.10;99.90;;;;;;5032478;28;20081;-47
2022/11/22 11:04:31;;;;;;;8.13;2.75;;;6.10;99.90;;;;;;5014867;28;20389;-48
2022/11/22 11:06:59;;;;;;;6.50;2.22;;;6.30;99.90;;;;;;5032149;28;20049;-51
2022/11/22 11:09:34;;;;;;;11.02;2.28;;;6.30;99.90;;;;;;5032582;28;20041;-49
2022/11/22 11:12:04;;;;;;;8.63;2.33;;;6.20;99.90;;;;;;5032445;28;20099;-47
2022/11/22 11:14:44;;;;;;;9.00;2.85;;;6.20;99.90;;;;;;5034872;28;20051;-47
2022/11/22 11:17:16;;;;;;;9.32;2.70;;;6.30;99.90;;;;;;5022461;28;20076;-46
2022/11/22 11:19:45;;;;;;;10.68;2.53;;;6.30;99.90;;;;;;5040445;28;20037;-46
2022/11/22 11:22:21;;;;;;;9.05;3.05;;;6.20;99.90;;;;;;5029039;28;20124;-51
2022/11/22 11:24:47;;;;;;;9.65;2.58;;;6.20;99.90;;;;;;5050564;28;20047;-47
2022/11/22 11:27:14;;;;;;;8.23;3.00;;;6.30;99.90;;;;;;5050714;28;20040;-51
2022/11/22 11:30:00;;;;;;;11.02;2.53;;;6.30;99.90;;;;;;5050786;28;20445;-50
2022/11/22 11:32:26;;;;;;;7.45;1.95;;;6.30;99.90;;;;;;5032817;28;20087;-48
2022/11/22 11:35:00;;;;;;;6.65;2.20;;;6.20;99.90;;;;;;5032868;28;20049;-47
2022/11/22 11:37:36;;;;;;;11.57;2.40;;;6.40;99.90;;;;;;5051372;28;20049;-48
2022/11/22 11:40:03;;;;;;;9.07;2.40;;;6.40;99.90;;;;;;5044867;28;20038;-46
2022/11/22 11:42:34;;;;;;;7.43;2.65;;;6.40;99.90;;;;;;5041306;28;20033;-47
2022/11/22 11:45:31;;;;;;;12.90;3.38;;;6.40;99.90;;;;;;5041716;28;20116;-46
2022/11/22 11:47:57;;;;;;;8.98;2.80;;;6.50;99.90;;;;;;5023320;28;20044;-47
2022/11/22 11:50:25;;;;;;;10.00;2.53;;;6.60;99.90;;;;;;5036665;28;20026;-47
2022/11/22 11:53:04;;;;;;;8.95;2.40;;;6.60;99.90;;;;;;5030762;28;20056;-46
2022/11/22 11:55:34;;;;;;;9.60;2.38;;;6.70;99.90;;;;;;5030401;28;20547;-45
2022/11/22 11:58:02;;;;;;;11.25;2.33;;;6.70;99.90;;;;;;5045113;28;20059;-45
2022/11/22 12:00:36;;;;;;;11.15;2.35;;;6.70;99.90;;;;;;5032599;28;20123;-48
2022/11/22 12:03:07;;;;;;;9.70;2.03;;;6.90;99.90;;;;;;5050660;28;20029;-61
2022/11/22 12:05:33;;;;;;;8.50;2.05;;;6.90;99.90;;;;;;5050685;28;20037;-61
2022/11/22 12:08:22;;;;;;;6.78;2.20;;;7.10;99.90;;;;;;5050869;28;20045;-61
2022/11/22 12:11:10;;;;;;;5.03;2.00;;;7.10;99.90;;;;;;5045773;28;20091;-60
2022/11/22 12:13:46;;;;;;;6.32;1.80;;;7.00;99.90;;;;;;5049407;28;20044;-61
2022/11/22 12:16:18;;;;;;;6.78;2.58;;;7.00;99.90;;;;;;5050846;28;20047;-61
2022/11/22 12:18:57;;;;;;;8.43;1.77;;;7.00;99.90;;;;;;5050894;28;20040;-61
2022/11/22 12:21:28;;;;;;;9.35;2.25;;;7.00;99.90;;;;;;5050821;28;20393;-61
2022/11/22 12:24:20;;;;;;;8.00;2.10;;;6.90;99.90;;;;;;5053258;28;20041;-61
2022/11/22 12:26:46;;;;;;;6.47;2.00;;;6.80;99.90;;;;;;5040973;28;20044;-61
2022/11/22 12:29:14;;;;;;;7.60;2.05;;;6.80;99.90;;;;;;5034572;28;20092;-61
2022/11/22 12:31:58;;;;;;;8.75;2.47;;;6.80;99.90;;;;;;5034334;28;20050;-60
2022/11/22 12:34:32;;;;;;;10.75;1.92;;;6.80;99.90;;;;;;5016640;28;20076;-61
2022/11/22 12:37:09;;;;;;;7.47;1.90;;;6.80;99.90;;;;;;5034690;28;20045;-61
2022/11/22 12:39:36;;;;;;;7.07;2.05;;;6.80;99.90;;;;;;5016509;28;20079;-60
2022/11/22 12:42:12;;;;;;;7.85;2.42;;;6.80;99.90;;;;;;5016448;28;20470;-60
2022/11/22 12:44:46;;;;;;;6.93;1.80;;;6.80;99.90;;;;;;5035824;28;20049;-61
2022/11/22 12:47:19;;;;;;;5.40;1.88;;;6.80;99.90;;;;;;5034074;28;20057;-61
2022/11/22 12:49:57;;;;;;;6.20;1.85;;;6.80;99.90;;;;;;5034330;28;20041;-61
2022/11/22 12:52:51;;;;;;;5.80;1.73;;;6.80;99.90;;;;;;5034140;28;20061;-61
2022/11/22 12:55:25;;;;;;;6.97;1.83;;;6.80;99.90;;;;;;5016534;28;20068;-61
2022/11/22 12:58:10;;;;;;;8.63;2.22;;;6.80;99.90;;;;;;5047650;28;20094;-61
2022/11/22 13:00:43;;;;;;;10.80;2.25;;;6.70;99.90;;;;;;5054815;28;20534;-61
2022/11/22 13:03:14;;;;;;;9.13;2.03;;;6.70;99.90;;;;;;5054414;28;20033;-61
2022/11/22 13:05:46;;;;;;;8.40;2.23;;;6.80;99.90;;;;;;5054659;28;20389;-61
2022/11/22 13:08:30;;;;;;;7.32;2.55;;;7.30;99.90;;;;;;5054164;28;20304;-60
2022/11/22 13:11:04;;;;;;;10.60;2.22;;;6.80;99.90;;;;;;5054623;28;20094;-60